Data for 06/07/2006

Time Sea-Level Adjusted Pressure Absolute Pressure Temperature Relative Humidity Dew Point   
(mb) (inHg) (mb) (inHg) (C) (F) (%) (C) (F)
00:05 1019 30.09 848 25.04 18.3 65 46 6.5 43.7
00:10 1019 30.09 848 25.04 18.3 64.9 46 6.5 43.6
00:15 1019 30.09 848 25.04 18.2 64.8 45 6.2 43.2
00:20 1019 30.09 848 25.04 18.2 64.7 46 6.4 43.5
00:25 1019 30.09 848 25.04 18.1 64.5 46 6.4 43.5
00:30 1019 30.09 848 25.04 17.9 64.3 46 6.4 43.5
00:35 1019 30.09 848 25.04 17.8 64 47 6.4 43.5
00:40 1019 30.09 848 25.04 17.8 64 47 6.4 43.4
00:45 1019 30.09 848 25.04 17.7 63.9 47 6.3 43.4
00:50 1019 30.09 848 25.04 17.7 63.8 47 6.3 43.4
00:55 1019 30.09 848 25.04 17.7 63.8 47 6.4 43.4
01:00 1019 30.09 848 25.04 17.5 63.5 48 6.5 43.7
01:05 1019 30.09 848 25.04 17.4 63.3 48 6.4 43.6
01:10 1019 30.09 848 25.04 17.2 63 49 6.5 43.7
01:15 1019 30.09 848 25.04 17.2 63 48 6.3 43.3
01:20 1019 30.09 848 25.04 17.1 62.9 49 6.4 43.6
01:25 1019 30.09 848 25.04 17 62.6 50 6.6 43.8
01:30 1019 30.09 848 25.04 16.9 62.4 50 6.5 43.8
01:35 1019 30.09 848 25.04 16.8 62.2 50 6.4 43.6
01:40 1019 30.09 848 25.04 16.7 62 50 6.4 43.6
01:45 1019 30.09 848 25.04 16.6 61.9 50 6.4 43.4
01:50 1019 30.09 848 25.04 16.5 61.6 51 6.4 43.6
01:55 1019 30.09 848 25.04 16.4 61.5 51 6.4 43.4
02:00 1019 30.09 848 25.04 16.4 61.5 52 6.5 43.7
02:05 1019 30.09 848 25.04 16.4 61.4 51 6.4 43.5
02:10 1019 30.09 848 25.04 16.3 61.3 52 6.5 43.6
02:15 1019 30.09 848 25.04 16.1 61.1 52 6.4 43.5
02:20 1019 30.09 848 25.04 16.1 61 52 6.3 43.4
02:25 1019 30.09 848 25.04 16.1 60.9 52 6.3 43.3
02:30 1019 30.09 848 25.04 16 60.8 52 6.2 43.2
02:35 1019 30.09 848 25.04 15.9 60.6 52 6.3 43.3
02:40 1019 30.09 848 25.04 15.9 60.7 52 6.2 43.2
02:45 1019 30.09 848 25.04 16 60.7 52 6.2 43.2
02:50 1019 30.09 848 25.04 15.9 60.7 52 6.2 43.2
02:55 1019 30.09 848 25.04 16.1 60.9 51 6 42.9
03:00 1019 30.09 848 25.04 16.2 61.1 51 6.1 42.9
03:05 1019 30.09 848 25.04 16.2 61.2 50 5.8 42.4
03:10 1019 30.09 848 25.04 16.3 61.3 50 5.9 42.7
03:15 1019 30.09 848 25.04 16.3 61.3 50 5.9 42.6
03:20 1019 30.09 848 25.04 16.2 61.2 50 6 42.7
03:25 1019 30.09 848 25.04 16.2 61.2 49 5.7 42.2
03:30 1019 30.09 848 25.04 16.2 61.2 50 5.8 42.5
03:35 1019 30.09 848 25.04 16.2 61.2 49 5.7 42.3
03:40 1019 30.09 848 25.04 16.3 61.3 50 5.8 42.5
03:45 1019 30.09 848 25.04 16.1 61 50 5.8 42.4
03:50 1019 30.09 848 25.04 16.1 60.9 50 5.8 42.4
03:55 1019 30.09 848 25.04 16 60.8 51 5.9 42.6
04:00 1019 30.09 848 25.04 15.9 60.7 50 5.8 42.4
04:05 1019 30.09 848 25.04 15.9 60.7 50 5.7 42.3
04:10 1019 30.09 848 25.04 15.9 60.5 51 5.7 42.3
04:15 1019 30.09 848 25.04 15.9 60.5 50 5.6 42.1
04:20 1019 30.09 848 25.04 15.9 60.7 50 5.5 41.9
04:25 1019 30.09 848 25.04 15.9 60.7 50 5.5 41.9
04:30 1019 30.09 848 25.04 15.8 60.5 50 5.6 42.1
04:35 1019 30.09 848 25.04 15.7 60.3 51 5.6 42.1
04:40 1019 30.09 848 25.04 15.8 60.4 50 5.6 42.1
04:45 1019 30.09 849 25.07 15.7 60.3 51 5.6 42.1
04:50 1019 30.09 849 25.07 15.7 60.2 51 5.6 42.1
04:55 1020 30.12 849 25.07 15.6 60.2 51 5.5 42
05:00 1019 30.09 849 25.07 15.7 60.2 50 5.5 41.9
05:05 1019 30.09 849 25.07 15.7 60.2 51 5.5 42
05:10 1020 30.12 849 25.07 15.7 60.3 50 5.4 41.6
05:15 1020 30.12 850 25.1 15.8 60.4 50 5.5 41.9
05:20 1020 30.12 849 25.07 15.7 60.3 51 5.6 42
05:25 1020 30.12 849 25.07 15.6 60.1 51 5.6 42.1
05:30 1020 30.12 850 25.1 15.6 60 51 5.5 42
05:35 1021 30.15 850 25.1 15.6 60.1 51 5.6 42
05:40 1021 30.15 850 25.1 15.7 60.2 50 5.5 41.9
05:45 1021 30.15 850 25.1 15.6 60.1 51 5.7 42.2
05:50 1020 30.12 850 25.1 15.4 59.8 52 5.7 42.3
05:55 1020 30.12 849 25.07 15.3 59.6 52 5.7 42.3
06:00 1020 30.12 849 25.07 15.4 59.7 52 5.8 42.4
06:05 1019 30.09 849 25.07 15.4 59.8 51 5.6 42
06:10 1019 30.09 848 25.04 15.5 59.9 52 5.7 42.3
06:15 1018 30.06 848 25.04 15.5 60 52 5.9 42.6
06:20 1018 30.06 847 25.01 15.6 60 52 5.9 42.6
06:25 1018 30.06 847 25.01 16.2 61.2 48 5.4 41.8
06:30 1018 30.06 848 25.04 16.9 62.3 46 5.4 41.8
06:35 1019 30.09 848 25.04 17.6 63.6 44 5.4 41.7
06:40 1019 30.09 848 25.04 17.6 63.8 46 6.1 43.1
06:45 1018 30.06 848 25.04 17.1 62.8 47 5.9 42.5
06:50 1018 30.06 848 25.04 17 62.6 47 5.7 42.3
06:55 1018 30.06 847 25.01 17.1 62.7 47 5.6 42.2
07:00 1018 30.06 848 25.04 17.1 62.7 48 6.1 43
07:05 1018 30.06 848 25.04 16.9 62.4 49 6.3 43.4
07:10 1018 30.06 847 25.01 17 62.5 48 5.9 42.6
07:15 1018 30.06 847 25.01 17.3 63.1 47 5.9 42.6
07:20 1017 30.03 847 25.01 17.2 62.9 47 5.9 42.7
07:25 1018 30.06 847 25.01 17.3 63.2 47 6 42.7
07:30 1018 30.06 847 25.01 17 62.6 48 6.1 43
07:35 1018 30.06 847 25.01 17 62.6 48 6 42.8
07:40 1018 30.06 847 25.01 17.1 62.9 47 6 42.8
07:45 1018 30.06 847 25.01 17.6 63.6 47 6.1 42.9
07:50 1018 30.06 847 25.01 18 64.4 45 6.1 43
07:55 1018 30.06 847 25.01 18.4 65 44 6 42.9
08:00 1017 30.03 847 25.01 18.9 66 42 5.9 42.6
08:05 1017 30.03 847 25.01 18.9 66.1 42 5.8 42.4
08:10 1017 30.03 847 25.01 18.9 66 43 6.1 43
08:15 1017 30.03 846 24.98 19 66.3 43 6.3 43.4
08:20 1017 30.03 846 24.98 19 66.3 43 6.5 43.6
08:25 1018 30.06 847 25.01 19.5 67.2 42 6.4 43.6
08:30 1018 30.06 848 25.04 19.6 67.3 43 6.9 44.4
08:35 1019 30.09 849 25.07 19.2 66.5 45 7.1 44.7
08:40 1019 30.09 848 25.04 18.7 65.6 46 7.1 44.8
08:45 1018 30.06 847 25.01 18.3 64.9 49 7.4 45.4
08:50 1018 30.06 847 25.01 17.8 64 56 9 48.3
08:55 1018 30.06 848 25.04 16.5 61.7 65 10 50.1
09:00 1019 30.09 848 25.04 16 60.9 65 9.5 49.2
09:05 1019 30.09 848 25.04 16.9 62.4 64 10 50
09:10 1019 30.09 848 25.04 17.7 63.8 60 10 50
09:15 1019 30.09 848 25.04 17.8 64.1 55 8.8 47.9
09:20 1019 30.09 848 25.04 18.5 65.2 50 7.9 46.2
09:25 1019 30.09 848 25.04 18.7 65.6 51 8.4 47.2
09:30 1019 30.09 848 25.04 18.6 65.5 51 8.4 47.1
09:35 1019 30.09 848 25.04 18.6 65.4 50 8 46.4
09:40 1018 30.06 848 25.04 18.7 65.7 50 8.1 46.6
09:45 1018 30.06 848 25.04 18.7 65.7 49 7.8 46.1
09:50 1019 30.09 848 25.04 18.5 65.3 50 7.9 46.2
09:55 1019 30.09 849 25.07 18.4 65.1 49 7.7 45.9
10:00 1020 30.12 849 25.07 18.8 65.9 48 7.7 45.9
10:05 1021 30.15 850 25.1 19.4 66.9 47 7.9 46.1
10:10 1021 30.15 850 25.1 19.6 67.3 54 10.3 50.5
10:15 1021 30.15 851 25.13 19 66.1 55 9.8 49.6
10:20 1022 30.18 851 25.13 18.1 64.5 58 9.7 49.5
10:25 1022 30.18 851 25.13 17.8 64 57 9.3 48.8
10:30 1021 30.15 851 25.13 17.6 63.6 58 9.2 48.5
10:35 1022 30.18 851 25.13 17.7 63.8 56 8.8 47.9
10:40 1022 30.18 851 25.13 18.9 65.9 52 9 48.1
10:45 1022 30.18 851 25.13 19.4 66.8 51 9.2 48.5
10:50 1022 30.18 851 25.13 19.4 67 52 9.6 49.3
10:55 1022 30.18 851 25.13 20.3 68.5 48 8.9 48.1
11:00 1021 30.15 851 25.13 20.8 69.4 46 8.9 48
11:05 1021 30.15 850 25.1 20.5 69 44 8.1 46.5
11:10 1021 30.15 850 25.1 21.6 70.9 41 8 46.3
11:15 1021 30.15 850 25.1 21.3 70.3 42 8.1 46.7
11:20 1021 30.15 850 25.1 21 69.7 44 8.3 46.9
11:25 1021 30.15 850 25.1 21.1 69.9 42 7.7 45.9
11:30 1020 30.12 850 25.1 20.9 69.6 44 8.2 46.8
11:35 1020 30.12 850 25.1 20.8 69.5 43 8 46.3
11:40 1020 30.12 849 25.07 21.3 70.4 41 7.8 46
11:45 1020 30.12 849 25.07 21 69.7 43 8.2 46.7
11:50 1020 30.12 849 25.07 20.8 69.4 46 8.8 47.9
11:55 1020 30.12 849 25.07 21.1 69.9 43 8.2 46.8
12:00 1020 30.12 849 25.07 21.2 70.1 40 7.1 44.7
12:05 1020 30.12 849 25.07 21.9 71.4 38 7 44.6
12:10 1020 30.12 849 25.07 22.6 72.6 38 7.7 45.8
12:15 1020 30.12 849 25.07 22.4 72.4 35 6.5 43.6
12:20 1019 30.09 849 25.07 21.9 71.5 38 7.1 44.8
12:25 1019 30.09 848 25.04 22.5 72.4 37 7.2 45
12:30 1019 30.09 848 25.04 22.8 73 38 7.8 46
12:35 1019 30.09 848 25.04 23.4 74.1 35 7.2 45
12:40 1019 30.09 848 25.04 23.2 73.7 37 7.9 46.3
12:45 1019 30.09 848 25.04 23.2 73.8 39 8.7 47.7
12:50 1019 30.09 848 25.04 23.8 74.9 38 9 48.2
12:55 1019 30.09 848 25.04 23.6 74.5 38 8.8 47.9
13:00 1018 30.06 848 25.04 23.6 74.5 39 9 48.2
13:05 1018 30.06 848 25.04 23.7 74.7 41 9.8 49.6
13:10 1018 30.06 848 25.04 24.4 75.9 39 9.7 49.4
13:15 1018 30.06 847 25.01 23.9 75.1 40 9.6 49.2
13:20 1018 30.06 847 25.01 23.8 74.8 39 9.1 48.5
13:25 1018 30.06 847 25.01 23.5 74.3 40 9.3 48.7
13:30 1018 30.06 847 25.01 23.9 75 40 9.7 49.5
13:35 1018 30.06 847 25.01 24.5 76.1 37 9.1 48.5
13:40 1018 30.06 847 25.01 24 75.3 36 8.2 46.7
13:45 1018 30.06 847 25.01 23.8 74.9 38 9 48.2
13:50 1018 30.06 847 25.01 24.1 75.3 35 8 46.4
13:55 1018 30.06 847 25.01 24 75.1 37 8.8 47.8
14:00 1018 30.06 847 25.01 24 75.2 37 8.6 47.6
14:05 1017 30.03 847 25.01 24.2 75.6 39 9.4 48.9
14:10 1017 30.03 846 24.98 24.6 76.3 35 8.4 47
14:15 1017 30.03 846 24.98 24.6 76.3 37 9.4 48.8
14:20 1017 30.03 846 24.98 24.4 75.8 38 9.2 48.6
14:25 1017 30.03 846 24.98 24.2 75.5 38 9.3 48.7
14:30 1017 30.03 846 24.98 24.2 75.5 39 9.5 49.1
14:35 1017 30.03 846 24.98 24.1 75.4 40 9.7 49.5
14:40 1017 30.03 846 24.98 24 75.2 39 9.5 49.1
14:45 1017 30.03 846 24.98 24.2 75.5 39 9.7 49.4
14:50 1017 30.03 846 24.98 24.2 75.6 39 9.8 49.6
14:55 1017 30.03 846 24.98 24.2 75.5 40 9.9 49.8
15:00 1017 30.03 846 24.98 24.2 75.6 39 9.7 49.5
15:05 1017 30.03 846 24.98 24.4 76 39 9.7 49.5
15:10 1017 30.03 846 24.98 24.2 75.6 38 9.1 48.5
15:15 1016 30 846 24.98 24.1 75.3 39 9.5 49.1
15:20 1016 30 846 24.98 24.3 75.8 39 9.6 49.2
15:25 1016 30 845 24.95 24.5 76.2 38 9.5 49
15:30 1016 30 845 24.95 24.7 76.5 38 9.8 49.6
15:35 1016 30 845 24.95 24.9 76.8 37 9.6 49.2
15:40 1016 30 845 24.95 24.9 76.7 37 9.5 49.1
15:45 1016 30 845 24.95 24.4 76 38 9.3 48.8
15:50 1016 30 845 24.95 24.5 76.1 37 8.9 48.1
15:55 1016 30 845 24.95 24.5 76.1 37 9.2 48.6
16:00 1016 30 845 24.95 24.3 75.7 39 9.7 49.5
16:05 1016 30 845 24.95 24.2 75.5 39 9.6 49.3
16:10 1016 30 845 24.95 24.3 75.7 38 9.3 48.8
16:15 1016 30 845 24.95 24.1 75.4 39 9.5 49.2
16:20 1016 30 845 24.95 23.9 75 39 9.4 49
16:25 1016 30 845 24.95 23.6 74.4 40 9.4 49
16:30 1016 30 845 24.95 23.5 74.3 40 9.4 48.9
16:35 1016 30 845 24.95 23.3 74 41 9.6 49.2
16:40 1016 30 845 24.95 23.4 74.1 41 9.4 49
16:45 1016 30 845 24.95 23.4 74.1 38 8.3 47
16:50 1016 30 845 24.95 23.5 74.2 38 8.5 47.3
16:55 1016 30 845 24.95 23.5 74.4 38 8.7 47.6
17:00 1016 30 845 24.95 23.5 74.3 39 8.8 47.8
17:05 1016 30 845 24.95 23.4 74.2 39 8.8 47.9
17:10 1016 30 845 24.95 23.3 74 39 8.8 47.9
17:15 1016 30 845 24.95 23.3 73.9 40 9 48.2
17:20 1016 30 845 24.95 23.1 73.6 40 8.9 48.1
17:25 1016 30 845 24.95 23.1 73.5 43 9.8 49.7
17:30 1016 30 845 24.95 22.9 73.3 42 9.5 49
17:35 1016 30 845 24.95 22.9 73.2 44 10 50
17:40 1016 30 846 24.98 22.7 72.8 45 10.2 50.4
17:45 1016 30 845 24.95 22.5 72.4 47 10.8 51.4
17:50 1016 30 845 24.95 22.1 71.8 50 11.3 52.4
17:55 1016 30 845 24.95 21.8 71.3 50 11 51.7
18:00 1016 30 845 24.95 21.8 71.2 50 11.1 52.1
18:05 1016 30 845 24.95 21.6 70.9 51 11.1 52
18:10 1016 30 845 24.95 21.6 70.9 50 10.9 51.6
18:15 1016 30 845 24.95 21.7 71 50 10.9 51.7
18:20 1016 30 845 24.95 21.6 70.8 50 10.8 51.4
18:25 1016 30 845 24.95 21.6 70.9 50 11 51.7
18:30 1016 30 845 24.95 21.5 70.8 52 11.4 52.5
18:35 1016 30 846 24.98 21.6 70.8 53 11.7 53.1
18:40 1017 30.03 846 24.98 21.7 71.1 51 11.4 52.5
18:45 1017 30.03 846 24.98 21.7 71 49 10.7 51.3
18:50 1017 30.03 846 24.98 21.8 71.2 50 11.1 52
18:55 1017 30.03 846 24.98 21.9 71.4 50 11.2 52.1
19:00 1017 30.03 846 24.98 21.8 71.2 52 11.6 52.8
19:05 1016 30 846 24.98 21.8 71.2 51 11.4 52.5
19:10 1016 30 846 24.98 21.6 70.8 53 11.7 53.1
19:15 1017 30.03 846 24.98 21.4 70.6 53 11.6 52.9
19:20 1017 30.03 846 24.98 21.5 70.8 50 10.9 51.7
19:25 1016 30 846 24.98 21.7 71.1 49 10.5 51
19:30 1016 30 846 24.98 21.8 71.2 49 10.7 51.3
19:35 1016 30 846 24.98 21.9 71.4 48 10.5 50.9
19:40 1017 30.03 846 24.98 21.9 71.3 47 10.1 50.2
19:45 1016 30 846 24.98 21.9 71.4 46 10 50.1
19:50 1016 30 845 24.95 21.8 71.3 46 9.9 49.9
19:55 1016 30 846 24.98 21.8 71.2 46 9.9 49.7
20:00 1016 30 846 24.98 21.6 71 48 10.2 50.4
20:05 1017 30.03 846 24.98 21.4 70.6 48 10.3 50.5
20:10 1017 30.03 846 24.98 21.1 70 50 10.5 51
20:15 1016 30 846 24.98 20.8 69.5 51 10.6 51
20:20 1017 30.03 846 24.98 20.7 69.2 51 10.4 50.7
20:25 1017 30.03 846 24.98 20.7 69.2 50 10.1 50.2
20:30 1017 30.03 846 24.98 20.8 69.5 50 10.1 50.1
20:35 1017 30.03 846 24.98 20.9 69.6 48 9.7 49.5
20:40 1017 30.03 846 24.98 21.1 69.9 48 9.7 49.5
20:45 1017 30.03 847 25.01 21.1 70 47 9.5 49.1
20:50 1017 30.03 847 25.01 21.4 70.4 48 10.2 50.3
20:55 1018 30.06 847 25.01 20.7 69.3 56 11.9 53.3
21:00 1017 30.03 847 25.01 20 67.9 55 10.9 51.6
21:05 1018 30.06 847 25.01 20.1 68.1 56 11.1 52
21:10 1018 30.06 847 25.01 19.7 67.5 58 11.2 52.2
21:15 1018 30.06 847 25.01 19.7 67.5 58 11.4 52.5
21:20 1018 30.06 847 25.01 19.6 67.3 61 12.1 53.7
21:25 1018 30.06 847 25.01 19.4 66.9 61 11.8 53.2
21:30 1018 30.06 847 25.01 19.3 66.7 63 12 53.7
21:35 1018 30.06 847 25.01 19.2 66.5 63 11.9 53.5
21:40 1018 30.06 847 25.01 18.9 66 64 11.9 53.5
21:45 1018 30.06 847 25.01 18.8 65.9 64 12.1 53.8
21:50 1018 30.06 847 25.01 18.8 65.9 64 12.1 53.7
21:55 1018 30.06 847 25.01 18.5 65.2 65 11.9 53.5
22:00 1018 30.06 847 25.01 18.3 65 68 12.4 54.3
22:05 1018 30.06 847 25.01 18.1 64.6 69 12.5 54.5
22:10 1018 30.06 847 25.01 18 64.4 70 12.5 54.4
22:15 1018 30.06 847 25.01 18 64.5 71 12.8 55
22:20 1018 30.06 847 25.01 17.6 63.7 73 12.8 55
22:25 1018 30.06 847 25.01 17.6 63.6 73 12.7 54.9
22:30 1018 30.06 847 25.01 17.6 63.6 73 12.7 54.9
22:35 1018 30.06 847 25.01 17.9 64.2 67 11.7 53.1
22:40 1018 30.06 847 25.01 18.2 64.7 66 11.8 53.2
22:45 1018 30.06 847 25.01 18.1 64.7 67 11.9 53.4
22:50 1018 30.06 847 25.01 18 64.3 67 11.9 53.4
22:55 1018 30.06 847 25.01 17.9 64.2 68 11.9 53.5
23:00 1018 30.06 847 25.01 17.9 64.2 68 11.9 53.4
23:05 1018 30.06 847 25.01 17.9 64.1 68 12 53.5
23:10 1018 30.06 847 25.01 17.8 64 71 12.5 54.5
23:15 1018 30.06 847 25.01 17.5 63.5 72 12.5 54.5
23:20 1018 30.06 847 25.01 17.6 63.7 70 12.2 53.9
23:25 1018 30.06 847 25.01 17.6 63.6 73 12.8 55.1
23:30 1018 30.06 847 25.01 17.2 63 73 12.5 54.4
23:35 1018 30.06 847 25.01 17.3 63.1 74 12.6 54.7
23:40 1018 30.06 847 25.01 17.2 63 75 12.7 54.8
23:45 1018 30.06 847 25.01 17 62.6 76 12.9 55.2
23:50 1018 30.06 847 25.01 16.9 62.5 78 13 55.5
23:55 1018 30.06 847 25.01 16.8 62.2 77 12.7 54.9
24:00 1017 30.03 846 24.98 16.7 62 78 12.9 55.2